Sunday, June 26, 2016
08:11 UTC
  |  Log In   |  Register Free
Airport Search:

Lenawee County Airport
(KADG)

Lenawee County Airport Diagram
No Airport Diagram Available

FAA data valid effective May 26 2016 - Jul 21 2016 (unless otherwise noted).

 
 
 
 
 
 
 
 
 
 
 
 
 
 
Current Aviation Weather for KADG

Weather Summary


The most recent METAR observation for ADG was updated at: 12:53 UTC
METAR for KADG is not available. Closest METAR is for KUSE
KADG  (most recent observation was updatred at 26:07 UTC)
260753Z AUTO 00000KT 10SM CLR 17/16 A3007 RMK AO2 SLP180 T01670156

KUSE  (15.6 nm NE)   (most recent observation was updated at 26:07 UTC)
260755Z AUTO 18007KT 10SM 19/16 A3007 RMK AO2

KDUH  (20.5 nm NW)   (most recent observation was updated at 26:07 UTC)
260754Z AUTO 18005KT 10SM CLR 21/15 A3007 RMK AO2 T02090151

TAF for KADG is not available.
KTOL  (20.7 nm NW)   (most recent observation was updatred at 26:05 UTC)
260540Z 2606/2706 VRB03KT P6SM SCT150 OVC200 FM261300 21008KT P6SM SCT150 BKN200 FM262200 22010KT P6SM VCTS SCT050CB OVC120 FM270300 23005KT P6SM SCT050 OVC150


KJXN  (29.1 nm SE)   (most recent observation was updatred at 26:05 UTC)
260540Z 2606/2706 17006KT P6SM BKN250 FM261200 20008KT P6SM VCSH BKN050 FM261600 21010G18KT P6SM VCTS BKN050CB FM270100 24010KT P6SM BKN250


KYIP  (33.0 nm SW)   (most recent observation was updatred at 26:05 UTC)
260523Z 2606/2706 16004KT P6SM SCT200 FM261200 18009KT P6SM SCT040 BKN200 FM261600 21012G18KT P6SM SCT050 BKN150 PROB30 2620/2624 3SM TSRA SCT025 OVC050CB FM270000 23006KT P6SM BKN100
GlobalAir.com is loading additional information.
 Current Weather at ADG
63.0 F° (17.2 C°)

North winds at 0.0 mph
Pressure:
30.08 in
Humidity:
90%
Wind:
North at 0.0 mph
Dew Point:
60.1 F° (15.6 C°)
Visibility:
10.00 mi
ADG NOAA Radar




Find All Airport Services Find A Hotel Find A Rental Car Find A Golf Course Find A Restaurant $100 Hamburger



Airport Weather Forecast for KADG

Translated METAR for KADG (0753 UTC)
METAR:
KADG 260753Z AUTO 00000KT 10SM CLR 17/16 A3007 RMK AO2 SLP180 T01670156
Conditions at:
KADG (Lenawee County, MI) observed 0753 UTC 26 June 2016
Temperature:
17°C (62.6°F)
Dewpoint:
16°C (60.8°F) [RH = 93.8]
Pressure:
30.07 inches Hg (1018.3 mb)
pressure at sea level is 180 in Hg
Winds:
from the N (000 degrees) at 0 mph (0 knots: 0 m/s)
Visibility:
10 mile(s)
Ceiling:
at least 12,000 feet AGL
Clouds:
Clear below 12,000 feet AGL
Remarks:
site is un-manned
site is automated and HAS a precipitation sensor

Translated TAF for KTOL (Toledo Express, OH) (0540 UTC)
TAF text:
KTOL 260540Z 2606/2706 VRB03KT P6SM SCT150 OVC200
Forecast period:
Sunday Jun 26 2016 06:00 UTC - Monday Jun 27 2016 06:00 UTC
Forecast type:
FROM: standard forecast or significant change
Winds:
variable wind direction at 3.5 mph (3 knots: 1.5 m/s)
Visibility:
6 or more mile(s) (9.7+ km)
Ceiling:
20,000 feet AGL
Clouds:
Scattered Clouds at 15,000 feet AGL
Overcast Skies at 20,000 feet AGL
Weather:
no significant weather observed at this time
TAF text:
FM261300 21008KT P6SM SCT150 BKN200
Forecast period:
Sunday Jun 26 2016 13:00 UTC - Sunday Jun 26 2016 22:00 UTC
Forecast type:
FROM: standard forecast or significant change
Winds:
from the SSW (210 degrees) at 9.2 mph (8 knots: 4.1 m/s)
Visibility:
6 or more mile(s) (9.7+ km)
Ceiling:
20,000 feet AGL
Clouds:
Scattered Clouds at 15,000 feet AGL
Broken Cloud Cover at 20,000 feet AGL
Weather:
no significant weather observed at this time
TAF text:
FM262200 22010KT P6SM VCTS SCT050CB OVC120
Forecast period:
Sunday Jun 26 2016 22:00 UTC - Monday Jun 27 2016 03:00 UTC
Forecast type:
FROM: standard forecast or significant change
Winds:
from the SW (220 degrees) at 11.5 mph (10 knots: 5.1 m/s)
Visibility:
6 or more mile(s) (9.7+ km)
Ceiling:
12,000 feet AGL
Clouds:
Overcast Skies at 12,000 feet AGL
Weather:
Moderate In Vicinity Thunderstorm
TAF text:
FM270300 23005KT P6SM SCT050 OVC150
Forecast period:
Monday Jun 27 2016 03:00 UTC - Monday Jun 27 2016 06:00 UTC
Forecast type:
FROM: standard forecast or significant change
Winds:
from the SW (230 degrees) at 5.8 mph (5 knots: 2.6 m/s)
Visibility:
6 or more mile(s) (9.7+ km)
Ceiling:
15,000 feet AGL
Clouds:
Scattered Clouds at 5,000 feet AGL
Overcast Skies at 15,000 feet AGL
Weather:
no significant weather observed at this time
FBO's on the Field
FBO Company Facility Photos Services Transportation Aviation Fuel Prices: Prices include tax
Catering Weather Repair Courtesy Rental Type 100LL JetA JetA+ MOGAS 8087
 
Lenawee County Airport

This FBO has not yet been rated
FS:Avfuel
Last Updated: Jun-02
Login to update fuel prices
SS:
Contact Lenawee County AirportMore FBO Information
 
Add another FBO Facility Photos Catering Weather Repair Courtesy Rental Type 100LL JetA JetA+ MOGAS 8087
Services Transportation Aviation Fuel Prices: Prices include tax


model-print
model-print
model-print
model-print